Spanish Lake, Missouri
Current Conditions -  °F | °C
As of 9:45 AM on Monday 22 Dec 2014 (Local Time) from KALN Reporting Station
Light Rain Light Rain  
Wind Chill: 33°   Ceiling: 600
Heat Index: 41°   Visibility: 4mi
Dew Point: 39°   Wind: 16mph
Humidity: 93%   Direction: 140°SE
Pressure: 29.74"   Gusts: NA
Location:  38.7995°N, 90.1891°W
Report Text: KALN 221545Z 14014KT 4SM -RA OVC006 05/04 A2974
Loading
Personal Weather Stations






























Interactive Weather Map New forecast layout! Learn more

10-Day Weather Forecast

Advertisements
Track Severe Weather on mobile